Apuarema, Brazil
Current Conditions -  °F | °C
As of 10:00 AM on Wednesday 22 Oct 2014 (Local Time) from SBIL Reporting Station
Scattered Clouds Scattered Clouds  
Wind Chill: 82°   Ceiling: Unl
Heat Index: 87°   Visibility: 6mi
Dew Point: 72°   Wind: 7mph
Humidity: 70%   Direction: 110°ESE
Pressure: 30.06"   Gusts: NA
Location:  13.9°S, 39.75°W
Report Text: SBIL 221300Z 11006KT 9999 SCT025 28/22 Q1018
Loading
Personal Weather Stations






























Interactive Weather Map
Tropical Storm Tracking
New forecast layout! Learn more

10-Day Weather Forecast

Advertisements
Track Severe Weather on mobile